Time;durP1;ratioP1;P1;durP2;ratioP2;P2;SDS_P1;SDS_P2;PMS_P1;PMS_P2;Temp;Humidity;BMP_temperature;BMP_pressure;BME280_temperature;BME280_humidity;BME280_pressure;Samples;Min_cycle;Max_cycle;Signal;HPM_P1;HPM_P2
2023/03/28 00:00:35;;;;;;;2.80;0.40;;;1.00;99.90;;;;;;4990097;28;20475;-84
2023/03/28 00:03:01;;;;;;;5.18;0.50;;;0.90;99.90;;;;;;4984879;28;20026;-83
2023/03/28 00:05:27;;;;;;;2.65;0.40;;;0.90;99.90;;;;;;4981248;28;20041;-84
2023/03/28 00:07:55;;;;;;;4.97;0.47;;;0.90;99.90;;;;;;4980613;28;20442;-84
2023/03/28 00:10:21;;;;;;;5.60;0.70;;;0.90;99.90;;;;;;4987066;28;20128;-84
2023/03/28 00:12:47;;;;;;;9.25;1.20;;;1.00;99.90;;;;;;4988204;28;20566;-84
2023/03/28 00:15:12;;;;;;;3.08;0.50;;;0.90;99.90;;;;;;4999453;28;21086;-84
2023/03/28 00:17:40;;;;;;;3.58;0.50;;;0.90;99.90;;;;;;4979004;28;20052;-84
2023/03/28 00:20:09;;;;;;;3.60;0.50;;;0.90;99.90;;;;;;4987570;28;20080;-84
2023/03/28 00:22:37;;;;;;;7.78;0.70;;;0.80;99.90;;;;;;4992011;28;20033;-84
2023/03/28 00:25:05;;;;;;;4.43;0.40;;;0.90;99.90;;;;;;4991160;28;20036;-84
2023/03/28 00:27:34;;;;;;;5.50;0.60;;;0.80;99.90;;;;;;4992259;28;20050;-84
2023/03/28 00:30:04;;;;;;;3.90;0.75;;;0.80;99.90;;;;;;4987187;28;20662;-84
2023/03/28 00:32:30;;;;;;;4.07;0.40;;;0.80;99.90;;;;;;4993109;28;20083;-85
2023/03/28 00:34:55;;;;;;;3.63;0.40;;;0.80;99.90;;;;;;4977140;28;20046;-84
2023/03/28 00:37:21;;;;;;;3.70;0.40;;;0.80;99.90;;;;;;4978603;28;20030;-84
2023/03/28 00:39:50;;;;;;;5.55;0.60;;;0.70;99.90;;;;;;4986520;28;20030;-84
2023/03/28 00:42:18;;;;;;;5.10;0.60;;;0.70;99.90;;;;;;4980672;28;20022;-84
2023/03/28 00:44:52;;;;;;;2.45;0.40;;;0.70;99.90;;;;;;4991625;28;20474;-83
2023/03/28 00:47:27;;;;;;;3.22;0.50;;;0.70;99.90;;;;;;4992999;28;20022;-84
2023/03/28 00:50:18;;;;;;;3.65;0.57;;;0.70;99.90;;;;;;4977724;28;20113;-84
2023/03/28 00:52:56;;;;;;;5.55;0.52;;;0.70;99.90;;;;;;4990658;28;20474;-84
2023/03/28 00:55:32;;;;;;;2.63;0.50;;;0.60;99.90;;;;;;4972470;28;20144;-84
2023/03/28 00:57:58;;;;;;;4.22;0.50;;;0.70;99.90;;;;;;4991468;28;20080;-84
2023/03/28 01:00:25;;;;;;;3.75;0.40;;;0.70;99.90;;;;;;4985162;28;20034;-84
2023/03/28 01:02:55;;;;;;;2.35;0.40;;;0.60;99.90;;;;;;4978391;28;20076;-84
2023/03/28 01:05:28;;;;;;;2.78;0.40;;;0.50;99.90;;;;;;4992979;28;20148;-84
2023/03/28 01:08:21;;;;;;;3.03;0.40;;;0.50;99.90;;;;;;5000518;28;20109;-84
2023/03/28 01:10:47;;;;;;;1.98;0.40;;;0.50;99.90;;;;;;4982816;28;20026;-84
2023/03/28 01:13:18;;;;;;;3.85;1.20;;;0.50;99.90;;;;;;4994034;28;20619;-84
2023/03/28 01:15:47;;;;;;;2.75;0.43;;;0.50;99.90;;;;;;4985517;28;20537;-82
2023/03/28 01:18:15;;;;;;;5.75;0.70;;;0.40;99.90;;;;;;4994832;28;20139;-83
2023/03/28 01:21:13;;;;;;;3.67;0.60;;;0.50;99.90;;;;;;4986213;28;20479;-83
2023/03/28 01:24:01;;;;;;;3.80;0.52;;;0.50;99.90;;;;;;4925891;28;20373;-84
2023/03/28 01:26:42;;;;;;;4.95;0.60;;;0.50;99.90;;;;;;4922664;28;20059;-84
2023/03/28 01:30:12;;;;;;;4.70;0.50;;;0.60;99.90;;;;;;4941246;28;20127;-84
2023/03/28 01:33:41;;;;;;;2.35;0.40;;;0.50;99.90;;;;;;4873641;29;20128;-84
2023/03/28 01:36:37;;;;;;;2.72;0.50;;;0.40;99.90;;;;;;4868255;29;20838;-84
2023/03/28 01:39:16;;;;;;;8.10;0.60;;;0.50;99.90;;;;;;4843261;29;20509;-83
2023/03/28 01:41:48;;;;;;;3.03;0.40;;;0.50;99.90;;;;;;4870888;29;20632;-84
2023/03/28 01:44:22;;;;;;;2.92;0.50;;;0.40;99.90;;;;;;4855430;29;20029;-84
2023/03/28 01:47:14;;;;;;;3.75;0.40;;;0.40;99.90;;;;;;4852834;29;20081;-83
2023/03/28 01:50:02;;;;;;;2.78;0.30;;;0.40;99.90;;;;;;4832464;29;20041;-83
2023/03/28 01:52:34;;;;;;;3.17;0.30;;;0.30;99.90;;;;;;4844548;29;20136;-84
2023/03/28 01:55:19;;;;;;;1.75;0.25;;;0.10;99.90;;;;;;4851922;29;20048;-83
2023/03/28 01:58:14;;;;;;;2.35;0.20;;;0.00;99.90;;;;;;4864932;29;20081;-83
2023/03/28 02:00:53;;;;;;;0.77;0.20;;;0.00;99.90;;;;;;4852754;29;20121;-83
2023/03/28 02:03:35;;;;;;;0.80;0.20;;;-0.20;99.90;;;;;;4859562;29;20395;-84
2023/03/28 02:06:10;;;;;;;0.90;0.28;;;-0.20;99.90;;;;;;4861961;29;20152;-83
2023/03/28 02:08:40;;;;;;;1.13;0.20;;;-0.20;99.90;;;;;;4946425;28;20046;-83
2023/03/28 02:11:26;;;;;;;2.75;0.30;;;-0.20;99.90;;;;;;5004424;28;20477;-84
2023/03/28 02:14:13;;;;;;;1.02;0.20;;;-0.10;99.90;;;;;;4998580;28;20041;-83
2023/03/28 02:16:40;;;;;;;2.40;0.30;;;0.00;99.90;;;;;;5028167;28;20124;-83
2023/03/28 02:19:51;;;;;;;5.05;0.50;;;0.10;99.90;;;;;;4937717;29;20062;-84
2023/03/28 02:22:37;;;;;;;5.32;0.70;;;0.10;99.90;;;;;;4912487;29;20035;-83
2023/03/28 02:25:22;;;;;;;6.53;0.88;;;0.20;99.90;;;;;;4937397;29;20051;-83
2023/03/28 02:28:00;;;;;;;6.00;0.70;;;0.40;99.90;;;;;;4914926;29;20043;-83
2023/03/28 02:30:41;;;;;;;4.40;0.63;;;0.40;99.90;;;;;;4914876;29;20059;-84
2023/03/28 02:33:38;;;;;;;5.28;0.77;;;0.40;99.90;;;;;;4921715;29;20034;-84
2023/03/28 02:36:23;;;;;;;3.15;0.60;;;0.40;99.90;;;;;;4922523;29;20042;-83
2023/03/28 02:39:16;;;;;;;2.20;0.60;;;0.40;99.90;;;;;;4958698;28;20357;-83
2023/03/28 02:41:50;;;;;;;4.15;0.60;;;0.30;99.90;;;;;;4915776;29;20035;-83
2023/03/28 02:44:38;;;;;;;2.50;0.50;;;0.20;99.90;;;;;;4914189;29;20047;-83
2023/03/28 02:47:17;;;;;;;2.75;0.50;;;0.00;99.90;;;;;;4914909;29;20054;-83
2023/03/28 02:50:17;;;;;;;2.05;0.30;;;-0.10;99.90;;;;;;4924109;28;20057;-84
2023/03/28 02:53:21;;;;;;;1.20;0.30;;;-0.20;99.90;;;;;;4988355;28;20112;-83
2023/03/28 02:55:46;;;;;;;2.20;0.20;;;-0.20;99.90;;;;;;4995777;28;20093;-83
2023/03/28 02:58:50;;;;;;;2.83;0.20;;;-0.30;99.90;;;;;;5000823;28;20482;-83
2023/03/28 03:01:16;;;;;;;1.00;0.28;;;-0.50;99.90;;;;;;5031317;28;20278;-83
2023/03/28 03:03:42;;;;;;;2.03;0.20;;;-0.70;99.90;;;;;;4986481;28;20025;-83
2023/03/28 03:06:09;;;;;;;3.17;0.30;;;-0.70;99.90;;;;;;4986757;28;20026;-84
2023/03/28 03:08:35;;;;;;;1.17;0.20;;;-0.70;99.90;;;;;;4984219;28;20044;-83
2023/03/28 03:11:00;;;;;;;2.00;0.20;;;-0.70;99.90;;;;;;4986095;28;20026;-83
2023/03/28 03:13:26;;;;;;;1.45;0.30;;;-0.70;99.90;;;;;;4981439;28;20033;-83
2023/03/28 03:15:53;;;;;;;2.38;0.25;;;-0.70;99.90;;;;;;4981714;28;20041;-83
2023/03/28 03:18:22;;;;;;;0.60;0.20;;;-0.80;99.90;;;;;;4981240;28;20485;-83
2023/03/28 03:20:49;;;;;;;1.35;0.25;;;-0.80;99.90;;;;;;4984075;28;20079;-84
2023/03/28 03:23:15;;;;;;;2.25;0.30;;;-0.90;99.90;;;;;;4999237;28;20022;-84
2023/03/28 03:25:42;;;;;;;2.70;0.30;;;-0.70;99.90;;;;;;4979314;28;20110;-83
2023/03/28 03:28:31;;;;;;;2.97;0.20;;;-0.80;99.90;;;;;;4986182;28;20091;-85
2023/03/28 03:30:56;;;;;;;0.85;0.20;;;-0.80;99.90;;;;;;4989502;28;20026;-83
2023/03/28 03:33:48;;;;;;;3.00;0.28;;;-0.80;99.90;;;;;;5013412;28;20038;-83
2023/03/28 03:36:17;;;;;;;1.85;0.40;;;-0.80;99.90;;;;;;4982830;28;20417;-84
2023/03/28 03:38:43;;;;;;;1.92;0.25;;;-0.90;99.90;;;;;;4983720;28;20242;-83
2023/03/28 03:41:14;;;;;;;1.23;0.30;;;-1.00;99.90;;;;;;4976922;28;20438;-83
2023/03/28 03:43:40;;;;;;;2.40;0.22;;;-0.90;99.90;;;;;;4988227;28;20030;-83
2023/03/28 03:46:06;;;;;;;1.80;0.20;;;-1.00;99.90;;;;;;4981334;28;20136;-83
2023/03/28 03:48:32;;;;;;;2.45;0.28;;;-1.10;99.90;;;;;;4984916;28;20514;-83
2023/03/28 03:50:59;;;;;;;1.98;0.20;;;-1.10;99.90;;;;;;4987420;28;20055;-83
2023/03/28 03:53:25;;;;;;;1.65;0.22;;;-1.30;99.90;;;;;;4985916;28;20506;-83
2023/03/28 03:56:00;;;;;;;2.10;0.20;;;-1.10;99.90;;;;;;4991882;28;20038;-85
2023/03/28 03:58:26;;;;;;;1.63;0.20;;;-1.20;99.90;;;;;;4984289;28;20034;-84
2023/03/28 04:00:52;;;;;;;0.75;0.20;;;-1.20;99.90;;;;;;4991396;28;20029;-83
2023/03/28 04:03:34;;;;;;;2.42;0.28;;;-1.30;99.90;;;;;;4981558;28;20033;-84
2023/03/28 04:06:04;;;;;;;1.25;0.20;;;-1.30;99.90;;;;;;4985107;28;20025;-83
2023/03/28 04:08:31;;;;;;;2.05;0.20;;;-1.50;99.90;;;;;;4985402;28;20111;-84
2023/03/28 04:10:57;;;;;;;1.85;0.20;;;-1.50;99.90;;;;;;4985172;28;20038;-83
2023/03/28 04:13:23;;;;;;;2.88;0.28;;;-1.40;99.90;;;;;;4985716;28;20088;-83
2023/03/28 04:15:54;;;;;;;1.08;0.30;;;-1.50;99.90;;;;;;4976357;28;20041;-83
2023/03/28 04:18:28;;;;;;;3.63;0.30;;;-1.60;99.90;;;;;;4980576;28;20025;-84
2023/03/28 04:20:57;;;;;;;0.90;0.20;;;-1.50;99.90;;;;;;4985800;28;20036;-84
2023/03/28 04:23:42;;;;;;;1.17;0.20;;;-1.50;99.90;;;;;;4986885;28;20022;-83
2023/03/28 04:26:24;;;;;;;1.45;0.22;;;-1.50;99.90;;;;;;4980278;28;20037;-83
2023/03/28 04:28:59;;;;;;;1.77;0.20;;;-1.40;99.90;;;;;;4993453;28;20390;-83
2023/03/28 04:31:28;;;;;;;1.00;0.20;;;-1.50;99.90;;;;;;4975511;28;20037;-83
2023/03/28 04:34:28;;;;;;;1.30;0.22;;;-1.40;99.90;;;;;;4962904;28;20042;-84
2023/03/28 04:37:09;;;;;;;1.23;0.30;;;-1.50;99.90;;;;;;4942459;28;20547;-84
2023/03/28 04:39:46;;;;;;;0.93;0.20;;;-1.80;99.90;;;;;;4950615;28;20037;-83
2023/03/28 04:42:29;;;;;;;2.15;0.20;;;-1.80;99.90;;;;;;4964038;28;20045;-85
2023/03/28 04:45:05;;;;;;;2.00;0.20;;;-1.80;99.90;;;;;;4946104;28;20038;-84
2023/03/28 04:47:33;;;;;;;1.00;0.20;;;-1.70;99.90;;;;;;4924312;29;20082;-83
2023/03/28 04:49:59;;;;;;;0.70;0.20;;;-1.80;99.90;;;;;;4924734;28;20411;-84
2023/03/28 04:52:28;;;;;;;0.50;0.20;;;-1.80;99.90;;;;;;4945207;28;20031;-83
2023/03/28 04:54:54;;;;;;;2.47;0.20;;;-1.80;99.90;;;;;;4926717;28;20043;-84
2023/03/28 04:57:21;;;;;;;1.80;0.20;;;-1.80;99.90;;;;;;4947781;28;20047;-84
2023/03/28 04:59:52;;;;;;;1.65;0.22;;;-1.80;99.90;;;;;;4945897;28;20054;-84
2023/03/28 05:02:35;;;;;;;0.73;0.20;;;-1.80;99.90;;;;;;4947365;28;20082;-84
2023/03/28 05:05:03;;;;;;;0.63;0.13;;;-1.90;99.90;;;;;;4946882;28;20063;-84
2023/03/28 05:07:32;;;;;;;3.03;0.30;;;-1.80;99.90;;;;;;4948773;28;20030;-84
2023/03/28 05:09:58;;;;;;;1.98;0.30;;;-1.90;99.90;;;;;;4935402;28;20423;-84
2023/03/28 05:12:32;;;;;;;0.70;0.30;;;-1.80;99.90;;;;;;4978876;28;20228;-85
2023/03/28 05:15:04;;;;;;;1.88;0.20;;;-1.80;99.90;;;;;;4983612;28;20080;-83
2023/03/28 05:17:31;;;;;;;0.70;0.20;;;-2.00;99.90;;;;;;4977732;28;20089;-83
2023/03/28 05:20:17;;;;;;;1.40;0.20;;;-1.80;99.90;;;;;;4982395;28;20025;-83
2023/03/28 05:22:54;;;;;;;2.28;0.30;;;-1.80;99.90;;;;;;4994725;28;20029;-83
2023/03/28 05:25:20;;;;;;;1.33;0.30;;;-2.00;99.90;;;;;;4974758;28;20057;-84
2023/03/28 05:27:48;;;;;;;1.70;0.20;;;-1.90;99.90;;;;;;4959862;28;20134;-83
2023/03/28 05:30:14;;;;;;;0.73;0.20;;;-1.80;99.90;;;;;;4947054;28;20061;-81
2023/03/28 05:32:41;;;;;;;3.33;0.30;;;-1.90;99.90;;;;;;4967662;28;20026;-83
2023/03/28 05:35:11;;;;;;;2.80;0.20;;;-2.00;99.90;;;;;;4971577;28;20033;-82
2023/03/28 05:37:37;;;;;;;0.60;0.20;;;-2.00;99.90;;;;;;4987547;28;20021;-82
2023/03/28 05:40:08;;;;;;;1.38;0.28;;;-2.00;99.90;;;;;;4970246;28;20446;-81
2023/03/28 05:42:37;;;;;;;2.35;0.30;;;-2.00;99.90;;;;;;4986043;28;20278;-83
2023/03/28 05:45:11;;;;;;;1.67;0.20;;;-2.00;99.90;;;;;;5000888;28;20026;-81
2023/03/28 05:48:15;;;;;;;1.67;0.17;;;-1.90;99.90;;;;;;4983072;28;20054;-83
2023/03/28 05:50:43;;;;;;;0.50;0.17;;;-1.90;99.90;;;;;;5000713;28;20473;-82
2023/03/28 05:53:09;;;;;;;0.70;0.20;;;-1.90;99.90;;;;;;4988363;28;20030;-82
2023/03/28 05:55:36;;;;;;;2.05;0.22;;;-1.90;99.90;;;;;;4974866;28;20489;-82
2023/03/28 05:58:05;;;;;;;1.90;0.20;;;-1.90;99.90;;;;;;4977271;28;20519;-82
2023/03/28 06:00:39;;;;;;;1.83;0.30;;;-1.90;99.90;;;;;;4977483;28;20040;-83
2023/03/28 06:03:06;;;;;;;1.05;0.20;;;-1.80;99.90;;;;;;4975561;28;20033;-83
2023/03/28 06:05:35;;;;;;;1.23;0.30;;;-1.70;99.90;;;;;;4972531;28;20031;-84
2023/03/28 06:08:08;;;;;;;0.85;0.25;;;-1.60;99.90;;;;;;4985651;28;20057;-84
2023/03/28 06:10:34;;;;;;;0.77;0.20;;;-1.50;99.90;;;;;;4987665;28;20025;-83
2023/03/28 06:13:16;;;;;;;1.95;0.30;;;-1.40;99.90;;;;;;4984224;28;20054;-83
2023/03/28 06:15:45;;;;;;;0.60;0.20;;;-1.30;99.90;;;;;;4985718;28;20038;-83
2023/03/28 06:18:10;;;;;;;1.27;0.20;;;-1.20;99.90;;;;;;4987330;28;20535;-84
2023/03/28 06:20:42;;;;;;;0.88;0.20;;;-1.00;99.90;;;;;;4974545;28;20022;-83
2023/03/28 06:23:08;;;;;;;1.20;0.30;;;-1.00;99.90;;;;;;4971836;28;20018;-83
2023/03/28 06:25:34;;;;;;;2.38;0.30;;;-0.90;99.90;;;;;;4971059;28;20032;-83
2023/03/28 06:28:00;;;;;;;2.03;0.20;;;-0.80;99.90;;;;;;4962855;28;20064;-83
2023/03/28 06:30:27;;;;;;;1.00;0.20;;;-0.70;99.90;;;;;;4974748;28;20025;-85
2023/03/28 06:32:52;;;;;;;0.80;0.20;;;-0.60;99.90;;;;;;4985191;28;20100;-83
2023/03/28 06:35:20;;;;;;;1.10;0.20;;;-0.50;99.90;;;;;;4989815;28;20038;-86
2023/03/28 06:37:46;;;;;;;0.90;0.20;;;-0.30;99.90;;;;;;4982384;28;20036;-83
2023/03/28 06:40:16;;;;;;;1.20;0.30;;;-0.20;99.90;;;;;;4971010;28;20045;-82
2023/03/28 06:42:42;;;;;;;0.85;0.20;;;-0.10;99.90;;;;;;4968135;28;20025;-83
2023/03/28 06:45:15;;;;;;;2.25;0.30;;;0.10;99.90;;;;;;4975447;28;20975;-83
2023/03/28 06:47:57;;;;;;;1.50;0.30;;;0.20;99.90;;;;;;4971899;28;20076;-83
2023/03/28 06:50:37;;;;;;;0.90;0.20;;;0.50;99.90;;;;;;4973824;28;20486;-82
2023/03/28 06:53:09;;;;;;;0.73;0.20;;;0.40;99.90;;;;;;4976290;28;20626;-83
2023/03/28 06:55:35;;;;;;;0.98;0.20;;;0.40;99.90;;;;;;4984403;28;20639;-83
2023/03/28 06:58:01;;;;;;;1.65;0.30;;;0.50;99.90;;;;;;4987341;28;20026;-83
2023/03/28 07:00:33;;;;;;;2.05;0.30;;;0.60;99.90;;;;;;4985447;28;20025;-83
2023/03/28 07:03:28;;;;;;;1.55;0.30;;;0.70;99.90;;;;;;4993160;28;20046;-82
2023/03/28 07:05:55;;;;;;;1.00;0.30;;;1.00;99.90;;;;;;4985235;28;20081;-84
2023/03/28 07:08:20;;;;;;;2.10;0.20;;;1.00;99.90;;;;;;4973571;28;20030;-81
2023/03/28 07:10:46;;;;;;;4.32;0.30;;;1.10;99.90;;;;;;4969155;28;20034;-82
2023/03/28 07:13:12;;;;;;;1.35;0.20;;;1.20;99.90;;;;;;4968670;28;20368;-81
2023/03/28 07:16:05;;;;;;;1.70;0.30;;;1.30;99.90;;;;;;4982897;28;20100;-81
2023/03/28 07:18:31;;;;;;;1.60;0.30;;;1.50;99.90;;;;;;4980793;28;20379;-81
2023/03/28 07:20:58;;;;;;;2.83;0.32;;;1.70;99.90;;;;;;4984555;28;20459;-80
2023/03/28 07:23:24;;;;;;;1.35;0.30;;;1.90;99.90;;;;;;4971160;28;20034;-81
2023/03/28 07:25:50;;;;;;;1.05;0.30;;;2.20;99.90;;;;;;4973844;28;20088;-81
2023/03/28 07:28:16;;;;;;;1.83;0.40;;;2.50;99.90;;;;;;4978348;28;20054;-81
2023/03/28 07:30:41;;;;;;;2.72;0.50;;;2.80;99.90;;;;;;4972648;28;20473;-80
2023/03/28 07:33:07;;;;;;;1.45;0.50;;;3.10;99.90;;;;;;4978645;28;20022;-81
2023/03/28 07:35:33;;;;;;;2.03;0.40;;;3.30;99.90;;;;;;4977217;28;20041;-80
2023/03/28 07:37:59;;;;;;;1.85;0.40;;;3.40;99.90;;;;;;4974459;28;20502;-82
2023/03/28 07:40:44;;;;;;;3.35;0.43;;;3.50;99.90;;;;;;4974552;28;20050;-80
2023/03/28 07:43:10;;;;;;;1.35;0.50;;;3.60;99.90;;;;;;4987712;28;20145;-81
2023/03/28 07:45:36;;;;;;;4.05;0.50;;;3.60;99.90;;;;;;4991153;28;20041;-82
2023/03/28 07:48:03;;;;;;;3.17;0.40;;;3.80;99.90;;;;;;4973192;28;20109;-82
2023/03/28 07:50:29;;;;;;;3.53;0.60;;;3.80;99.90;;;;;;4977938;28;20033;-81
2023/03/28 07:52:58;;;;;;;3.25;0.50;;;3.90;99.90;;;;;;5003439;28;20030;-81
2023/03/28 07:55:27;;;;;;;2.53;0.50;;;4.00;99.90;;;;;;4987581;28;20128;-79
2023/03/28 07:57:53;;;;;;;2.42;0.40;;;4.10;99.90;;;;;;4970224;28;20056;-81
2023/03/28 08:00:31;;;;;;;4.25;0.70;;;4.30;99.90;;;;;;4988865;28;20390;-81
2023/03/28 08:03:16;;;;;;;1.98;0.60;;;4.40;99.90;;;;;;5004541;28;20033;-82
2023/03/28 08:05:50;;;;;;;4.53;0.63;;;4.60;99.90;;;;;;4992987;28;20355;-82
2023/03/28 08:08:18;;;;;;;6.22;0.88;;;4.70;99.90;;;;;;4977284;28;20820;-81
2023/03/28 08:10:50;;;;;;;2.85;0.88;;;4.90;99.90;;;;;;4987436;28;20057;-81
2023/03/28 08:13:17;;;;;;;2.17;0.50;;;5.10;99.90;;;;;;4991343;28;20073;-81
2023/03/28 08:15:43;;;;;;;7.18;1.20;;;5.40;99.90;;;;;;4985177;28;20033;-81
2023/03/28 08:18:08;;;;;;;4.05;1.13;;;5.30;99.90;;;;;;4970030;28;20488;-80
2023/03/28 08:20:36;;;;;;;3.40;1.63;;;5.60;99.90;;;;;;4976413;28;20160;-82
2023/03/28 08:23:11;;;;;;;4.97;1.65;;;5.70;99.90;;;;;;4983965;28;20026;-81
2023/03/28 08:25:36;;;;;;;5.78;1.17;;;5.70;99.90;;;;;;5005305;28;20037;-83
2023/03/28 08:28:03;;;;;;;3.95;1.15;;;5.80;99.90;;;;;;4975987;28;20121;-81
2023/03/28 08:30:30;;;;;;;3.42;0.75;;;5.90;99.90;;;;;;4990051;28;20030;-80
2023/03/28 08:32:59;;;;;;;6.82;1.10;;;6.30;99.90;;;;;;4979117;28;20108;-82
2023/03/28 08:35:25;;;;;;;2.88;1.05;;;6.20;99.90;;;;;;4988663;28;20318;-82
2023/03/28 08:37:54;;;;;;;4.22;0.90;;;6.20;99.90;;;;;;4968137;28;20026;-81
2023/03/28 08:40:23;;;;;;;3.78;0.75;;;6.50;99.90;;;;;;4988441;28;20538;-83
2023/03/28 08:43:01;;;;;;;3.50;0.90;;;6.70;99.90;;;;;;4982375;28;20873;-82
2023/03/28 08:45:41;;;;;;;4.82;0.70;;;6.70;99.90;;;;;;4970202;28;20289;-83
2023/03/28 08:48:10;;;;;;;4.27;0.60;;;6.80;99.90;;;;;;4985495;28;20375;-83
2023/03/28 08:51:01;;;;;;;2.10;0.40;;;6.70;99.90;;;;;;4971024;28;20065;-83
2023/03/28 08:53:41;;;;;;;4.00;0.40;;;6.90;99.90;;;;;;4981236;28;20300;-83
2023/03/28 08:56:07;;;;;;;1.90;0.30;;;6.80;99.90;;;;;;5001707;28;20052;-82
2023/03/28 08:58:46;;;;;;;2.45;0.40;;;7.00;99.90;;;;;;4973254;28;20073;-82
2023/03/28 09:01:15;;;;;;;1.38;0.30;;;7.00;99.90;;;;;;4973255;28;20026;-83
2023/03/28 09:03:40;;;;;;;4.82;0.50;;;6.90;99.90;;;;;;4986068;28;20091;-82
2023/03/28 09:06:28;;;;;;;4.13;0.40;;;6.70;99.90;;;;;;4971574;28;20026;-83
2023/03/28 09:09:07;;;;;;;1.88;0.30;;;6.80;99.90;;;;;;4988750;28;20091;-83
2023/03/28 09:12:14;;;;;;;3.08;0.40;;;6.80;99.90;;;;;;4983479;28;21350;-82
2023/03/28 09:15:28;;;;;;;2.20;0.40;;;6.80;99.90;;;;;;4986920;28;20053;-82
2023/03/28 09:18:10;;;;;;;2.40;0.32;;;6.90;99.90;;;;;;4926485;28;21015;-82
2023/03/28 09:21:11;;;;;;;2.75;0.80;;;7.00;99.90;;;;;;4928855;28;20496;-83
2023/03/28 09:23:57;;;;;;;3.78;0.52;;;7.40;99.90;;;;;;4923096;28;20276;-83
2023/03/28 09:27:01;;;;;;;1.63;0.30;;;7.50;99.90;;;;;;4947148;28;20058;-83
2023/03/28 09:29:31;;;;;;;4.00;0.55;;;7.40;99.90;;;;;;4928280;28;20058;-81
2023/03/28 09:32:03;;;;;;;2.80;0.50;;;7.40;99.90;;;;;;4944566;28;20023;-83
2023/03/28 09:34:46;;;;;;;2.78;0.47;;;7.50;99.90;;;;;;4925968;28;20035;-82
2023/03/28 09:37:26;;;;;;;3.42;0.40;;;7.30;99.90;;;;;;4927738;28;20545;-82
2023/03/28 09:39:54;;;;;;;3.92;0.60;;;7.50;99.90;;;;;;4924641;28;20514;-84
2023/03/28 09:42:40;;;;;;;3.30;0.50;;;7.50;99.90;;;;;;4928919;28;21592;-83
2023/03/28 09:45:34;;;;;;;4.68;0.47;;;7.80;99.90;;;;;;4944155;28;20039;-86
2023/03/28 09:48:23;;;;;;;3.83;0.60;;;8.00;99.90;;;;;;4941732;28;20046;-83
2023/03/28 09:50:51;;;;;;;3.05;0.70;;;8.10;99.90;;;;;;4919918;28;20953;-84
2023/03/28 09:53:23;;;;;;;2.85;0.70;;;8.10;99.90;;;;;;4951058;28;20038;-83
2023/03/28 09:55:50;;;;;;;3.50;0.50;;;7.90;99.90;;;;;;4983226;28;20073;-83
2023/03/28 09:58:17;;;;;;;4.03;0.30;;;8.00;99.90;;;;;;4987243;28;20087;-83
2023/03/28 10:01:32;;;;;;;6.25;0.50;;;7.90;99.90;;;;;;4990984;28;20281;-83
2023/03/28 10:04:17;;;;;;;3.40;0.47;;;7.60;99.90;;;;;;5004609;28;20385;-83
2023/03/28 10:07:11;;;;;;;2.03;0.40;;;7.80;99.90;;;;;;4986204;28;20029;-84
2023/03/28 10:09:53;;;;;;;3.20;0.47;;;8.50;99.90;;;;;;4972461;28;20233;-84
2023/03/28 10:12:24;;;;;;;2.22;0.40;;;8.70;99.90;;;;;;4999013;28;20118;-83
2023/03/28 10:14:51;;;;;;;1.55;0.40;;;8.90;99.90;;;;;;4980618;28;20044;-85
2023/03/28 10:17:35;;;;;;;2.35;0.50;;;9.00;99.90;;;;;;4977753;28;20113;-84
2023/03/28 10:20:13;;;;;;;3.42;0.50;;;8.70;99.90;;;;;;5003646;28;20486;-84
2023/03/28 10:22:40;;;;;;;2.17;0.40;;;8.50;99.90;;;;;;4992608;28;20024;-82
2023/03/28 10:25:14;;;;;;;3.58;0.50;;;8.40;99.90;;;;;;4976471;28;20036;-83
2023/03/28 10:27:40;;;;;;;2.78;0.47;;;8.40;99.90;;;;;;5003954;28;20042;-85
2023/03/28 10:30:24;;;;;;;1.73;0.40;;;8.30;99.90;;;;;;4976594;28;20056;-83
2023/03/28 10:33:15;;;;;;;2.78;0.40;;;8.20;99.90;;;;;;4986472;28;20110;-83
2023/03/28 10:36:11;;;;;;;2.78;0.60;;;8.30;99.90;;;;;;4979116;28;20042;-83
2023/03/28 10:38:43;;;;;;;4.32;0.70;;;8.20;99.90;;;;;;4980083;28;20032;-82
2023/03/28 10:41:34;;;;;;;1.85;0.43;;;8.40;99.90;;;;;;4986172;28;20050;-83
2023/03/28 10:44:18;;;;;;;4.32;0.50;;;8.70;99.90;;;;;;4977379;28;20025;-85
2023/03/28 10:47:04;;;;;;;2.78;0.75;;;8.40;99.90;;;;;;4977455;28;20498;-84
2023/03/28 10:49:44;;;;;;;2.72;0.35;;;8.50;99.90;;;;;;4973663;28;20065;-84
2023/03/28 10:52:47;;;;;;;1.48;0.30;;;8.70;99.90;;;;;;4971322;28;20034;-84
2023/03/28 10:55:30;;;;;;;3.83;0.43;;;9.00;99.90;;;;;;4975007;28;20498;-84
2023/03/28 10:58:25;;;;;;;2.15;0.55;;;9.20;99.90;;;;;;4979566;28;20044;-82
2023/03/28 11:01:27;;;;;;;3.70;0.50;;;9.10;99.90;;;;;;4977936;28;20041;-84
2023/03/28 11:04:33;;;;;;;2.15;0.38;;;8.90;99.90;;;;;;4974962;28;20030;-84
2023/03/28 11:07:34;;;;;;;2.30;0.43;;;8.80;99.90;;;;;;4977591;28;20038;-84
2023/03/28 11:10:32;;;;;;;2.75;0.30;;;8.60;99.90;;;;;;4976295;28;20026;-85
2023/03/28 11:13:13;;;;;;;2.28;0.30;;;9.00;99.90;;;;;;4970452;28;20605;-82
2023/03/28 11:15:51;;;;;;;3.35;0.30;;;8.90;99.90;;;;;;4970378;28;20061;-84
2023/03/28 11:18:23;;;;;;;1.88;0.30;;;9.10;99.90;;;;;;4980510;28;20133;-85
2023/03/28 11:21:13;;;;;;;1.63;0.30;;;9.00;99.90;;;;;;4976132;28;20117;-83
2023/03/28 11:23:57;;;;;;;1.27;0.30;;;9.00;99.90;;;;;;4969936;28;20030;-84
2023/03/28 11:26:47;;;;;;;1.95;0.35;;;9.00;99.90;;;;;;4972444;28;20077;-84
2023/03/28 11:29:48;;;;;;;3.42;0.40;;;8.90;99.90;;;;;;4996409;28;20092;-83
2023/03/28 11:32:24;;;;;;;3.00;0.40;;;8.50;99.90;;;;;;4992127;28;20837;-83
2023/03/28 11:35:14;;;;;;;3.05;0.40;;;8.50;99.90;;;;;;4979562;28;20958;-83
2023/03/28 11:38:01;;;;;;;1.35;0.20;;;8.60;99.90;;;;;;4976998;28;20040;-84
2023/03/28 11:40:55;;;;;;;1.73;0.30;;;8.90;99.90;;;;;;4977110;28;20043;-84
2023/03/28 11:44:05;;;;;;;2.45;0.30;;;8.50;99.90;;;;;;4972840;28;20030;-84
2023/03/28 11:46:32;;;;;;;1.55;0.30;;;8.40;99.90;;;;;;4965169;28;20084;-84
2023/03/28 11:49:20;;;;;;;1.58;0.35;;;8.50;99.90;;;;;;4973760;28;20397;-84
2023/03/28 11:52:23;;;;;;;2.08;0.30;;;8.40;99.90;;;;;;4984565;28;20535;-84
2023/03/28 11:55:16;;;;;;;2.25;0.30;;;8.50;99.90;;;;;;4941094;28;20129;-83
2023/03/28 11:58:04;;;;;;;1.55;0.30;;;8.60;99.90;;;;;;4963476;28;20034;-84
2023/03/28 12:00:51;;;;;;;1.10;0.30;;;8.90;99.90;;;;;;4974652;28;20053;-84
2023/03/28 12:03:35;;;;;;;2.83;0.35;;;9.00;99.90;;;;;;4971889;28;20132;-83
2023/03/28 12:06:14;;;;;;;2.55;0.40;;;8.90;99.90;;;;;;4973315;28;20018;-83
2023/03/28 12:09:07;;;;;;;2.30;0.30;;;8.90;99.90;;;;;;4983000;28;20034;-84
2023/03/28 12:11:41;;;;;;;3.88;0.65;;;9.20;99.90;;;;;;4985111;28;20367;-83
2023/03/28 12:14:31;;;;;;;2.15;0.30;;;9.20;99.90;;;;;;4972792;28;20435;-83
2023/03/28 12:17:25;;;;;;;1.67;0.30;;;9.60;99.90;;;;;;4981966;28;20673;-83
2023/03/28 12:19:52;;;;;;;1.45;0.30;;;9.50;99.90;;;;;;4972528;28;20084;-83
2023/03/28 12:22:34;;;;;;;2.00;0.30;;;9.20;99.90;;;;;;5000734;28;20022;-84
2023/03/28 12:25:01;;;;;;;1.30;0.20;;;9.30;99.90;;;;;;4974762;28;20059;-85
2023/03/28 12:27:54;;;;;;;3.08;0.30;;;9.30;99.90;;;;;;4974569;28;20399;-83
2023/03/28 12:30:31;;;;;;;4.18;0.35;;;9.20;99.90;;;;;;5005220;28;20034;-83
2023/03/28 12:33:07;;;;;;;1.17;0.20;;;9.20;99.90;;;;;;4988303;28;20446;-83
2023/03/28 12:35:48;;;;;;;1.20;0.20;;;9.20;99.90;;;;;;4978712;28;20033;-82
2023/03/28 12:38:25;;;;;;;2.22;0.20;;;9.20;99.90;;;;;;4992643;28;20185;-84
2023/03/28 12:41:06;;;;;;;1.48;0.20;;;9.60;99.90;;;;;;4989029;28;20083;-81
2023/03/28 12:43:45;;;;;;;1.38;0.20;;;9.80;99.90;;;;;;4978122;28;20026;-84
2023/03/28 12:46:20;;;;;;;0.95;0.20;;;9.90;99.90;;;;;;4995236;28;20061;-85
2023/03/28 12:48:53;;;;;;;1.48;0.20;;;10.20;99.90;;;;;;4982051;28;20562;-85
2023/03/28 12:51:32;;;;;;;1.40;0.15;;;10.00;99.90;;;;;;4990550;28;20053;-84
2023/03/28 12:54:05;;;;;;;2.65;0.52;;;10.20;99.90;;;;;;4969019;28;20121;-83
2023/03/28 12:56:30;;;;;;;1.95;0.15;;;10.00;99.90;;;;;;4975733;28;20159;-85
2023/03/28 12:58:56;;;;;;;0.80;0.20;;;9.60;99.90;;;;;;4978168;28;20373;-85
2023/03/28 13:01:44;;;;;;;1.67;0.28;;;9.80;99.90;;;;;;4970918;28;20398;-83
2023/03/28 13:04:46;;;;;;;1.77;0.20;;;9.70;99.90;;;;;;4979603;28;20522;-84
2023/03/28 13:07:45;;;;;;;2.92;0.30;;;9.80;99.90;;;;;;4990753;28;20672;-85
2023/03/28 13:10:23;;;;;;;3.65;0.40;;;9.40;99.90;;;;;;4966325;28;20033;-85
2023/03/28 13:13:20;;;;;;;1.52;0.20;;;9.30;99.90;;;;;;4983864;28;20360;-85
2023/03/28 13:16:20;;;;;;;2.95;0.40;;;9.40;99.90;;;;;;4970044;28;20169;-84
2023/03/28 13:19:02;;;;;;;3.55;0.50;;;9.30;99.90;;;;;;4988611;28;20483;-85
2023/03/28 13:21:56;;;;;;;2.97;0.40;;;9.20;99.90;;;;;;4974813;28;20034;-85
2023/03/28 13:24:25;;;;;;;2.28;0.30;;;9.20;99.90;;;;;;5001444;28;20053;-85
2023/03/28 13:26:58;;;;;;;0.85;0.28;;;9.70;99.90;;;;;;4967274;28;20042;-85
2023/03/28 13:29:45;;;;;;;2.10;0.30;;;9.70;99.90;;;;;;4976998;28;20128;-86
2023/03/28 13:32:15;;;;;;;1.50;0.38;;;9.80;99.90;;;;;;4977074;28;20070;-85
2023/03/28 13:35:00;;;;;;;1.50;0.25;;;10.20;99.90;;;;;;5001456;28;20080;-85
2023/03/28 13:37:41;;;;;;;2.97;0.50;;;10.30;99.90;;;;;;4988387;28;20038;-84
2023/03/28 13:40:39;;;;;;;4.55;0.50;;;10.00;99.90;;;;;;4984920;28;20050;-84
2023/03/28 13:43:23;;;;;;;1.35;0.30;;;9.90;99.90;;;;;;4972939;28;20061;-84